Time;durP1;ratioP1;P1;durP2;ratioP2;P2;SDS_P1;SDS_P2;PMS_P1;PMS_P2;Temp;Humidity;BMP_temperature;BMP_pressure;BME280_temperature;BME280_humidity;BME280_pressure;Samples;Min_cycle;Max_cycle;Signal;HPM_P1;HPM_P2
2022/07/17 00:00:55;;;;;;;67.66;44.16;;;;;;;20.84;83.97;100767.58;470328;112;922572;-75
2022/07/17 00:01:58;;;;;;;74.47;46.43;;;;;;;20.86;83.91;100773.69;470377;112;922561;-75
2022/07/17 00:03:02;;;;;;;65.30;43.26;;;;;;;20.87;83.98;100774.52;470243;112;923637;-75
2022/07/17 00:04:05;;;;;;;71.45;43.96;;;;;;;20.91;84.25;100779.23;470374;112;922634;-75
2022/07/17 00:05:09;;;;;;;65.08;43.12;;;;;;;20.94;84.14;100777.85;470224;112;922469;-73
2022/07/17 00:06:14;;;;;;;57.84;40.68;;;;;;;20.99;84.31;100777.84;470213;112;923012;-75
2022/07/17 00:07:17;;;;;;;65.84;41.38;;;;;;;21.01;84.28;100779.21;470222;112;922541;-75
2022/07/17 00:08:20;;;;;;;53.33;38.71;;;;;;;21.04;84.31;100781.44;470305;112;930518;-75
2022/07/17 00:09:23;;;;;;;51.20;36.24;;;;;;;21.07;84.24;100772.55;470280;112;923058;-74
2022/07/17 00:10:28;;;;;;;50.85;34.98;;;;;;;21.09;84.18;100775.05;469791;112;930420;-75
2022/07/17 00:11:32;;;;;;;46.24;34.81;;;;;;;21.11;84.46;100773.67;470189;112;930545;-74
2022/07/17 00:12:35;;;;;;;48.06;34.41;;;;;;;21.14;84.14;100769.50;470382;112;923992;-74
2022/07/17 00:13:38;;;;;;;47.62;34.01;;;;;;;21.14;84.08;100773.14;470337;112;922916;-74
2022/07/17 00:14:41;;;;;;;42.67;34.36;;;;;;;21.17;84.21;100774.53;467446;112;922476;-74
2022/07/17 00:15:44;;;;;;;42.49;32.97;;;;;;;21.17;83.85;100772.56;461133;114;922518;-74
2022/07/17 00:16:47;;;;;;;40.34;33.05;;;;;;;21.16;83.47;100772.86;457916;116;923038;-74
2022/07/17 00:17:50;;;;;;;45.90;34.43;;;;;;;21.15;83.40;100779.52;446663;118;922583;-74
2022/07/17 00:18:54;;;;;;;33.39;28.12;;;;;;;21.14;83.18;100775.05;446636;118;923034;-74
2022/07/17 00:19:56;;;;;;;29.73;26.98;;;;;;;21.11;82.82;100772.84;446709;118;922581;-74
2022/07/17 00:20:59;;;;;;;28.90;26.02;;;;;;;21.07;82.55;100783.64;446672;118;922595;-74
2022/07/17 00:22:03;;;;;;;29.16;25.94;;;;;;;21.05;82.63;100773.95;446680;118;922534;-74
2022/07/17 00:23:06;;;;;;;24.23;22.28;;;;;;;21.04;82.68;100778.67;446710;118;922875;-74
2022/07/17 00:24:10;;;;;;;22.82;21.11;;;;;;;21.03;82.16;100778.94;446620;118;922556;-74
2022/07/17 00:25:13;;;;;;;23.56;21.69;;;;;;;20.92;81.80;100775.34;446544;118;923093;-74
2022/07/17 00:26:17;;;;;;;24.94;22.89;;;;;;;20.92;81.80;100775.34;446593;118;922912;-75
2022/07/17 00:27:20;;;;;;;24.18;21.94;;;;;;;20.89;81.94;100775.09;446719;118;923314;-74
2022/07/17 00:28:23;;;;;;;23.66;21.84;;;;;;;20.89;82.21;100769.55;446632;118;922984;-75
2022/07/17 00:29:26;;;;;;;22.89;21.02;;;;;;;20.88;82.26;100776.19;447340;116;922546;-75
2022/07/17 00:30:30;;;;;;;24.57;21.29;;;;;;;20.89;82.45;100778.69;448228;116;922495;-75
2022/07/17 00:31:33;;;;;;;22.80;20.99;;;;;;;20.92;82.58;100780.89;444606;119;930547;-75
2022/07/17 00:32:36;;;;;;;23.21;21.27;;;;;;;;;;446409;116;922530;-75
2022/07/17 00:33:39;;;;;;;23.15;21.26;;;;;;;20.99;82.78;100775.91;453500;116;922485;-75
2022/07/17 00:34:42;;;;;;;23.39;21.40;;;;;;;21.03;82.83;100776.17;446566;118;930470;-74
2022/07/17 00:35:45;;;;;;;25.26;23.07;;;;;;;21.06;82.88;100778.40;446685;118;923002;-73
2022/07/17 00:36:49;;;;;;;25.68;23.35;;;;;;;21.08;82.74;100774.22;446575;118;922960;-73
2022/07/17 00:37:52;;;;;;;26.93;23.99;;;;;;;21.10;82.80;100777.55;446662;116;922671;-73
2022/07/17 00:38:56;;;;;;;25.09;22.95;;;;;;;21.13;82.77;100785.30;446570;118;922529;-73
2022/07/17 00:39:59;;;;;;;26.34;23.96;;;;;;;21.13;82.30;100776.98;446678;118;923035;-75
2022/07/17 00:41:02;;;;;;;28.85;26.17;;;;;;;21.13;82.06;100770.60;446644;118;923118;-75
2022/07/17 00:42:05;;;;;;;33.27;29.32;;;;;;;21.10;81.63;100772.02;446609;118;923384;-75
2022/07/17 00:43:08;;;;;;;30.35;27.22;;;;;;;21.06;81.38;100776.43;446647;117;923178;-75
2022/07/17 00:44:12;;;;;;;26.44;24.04;;;;;;;21.04;81.45;100781.44;446697;118;922596;-75
2022/07/17 00:45:15;;;;;;;24.65;22.31;;;;;;;21.03;81.39;100777.00;446590;118;922609;-75
2022/07/17 00:46:20;;;;;;;25.29;23.38;;;;;;;21.02;81.67;100777.27;446512;118;925471;-75
2022/07/17 00:47:24;;;;;;;26.12;23.79;;;;;;;21.03;81.90;100777.00;446519;118;922972;-75
2022/07/17 00:48:27;;;;;;;23.83;21.74;;;;;;;21.06;81.84;100778.40;446529;116;930301;-74
2022/07/17 00:49:30;;;;;;;22.80;20.61;;;;;;;21.08;81.87;100776.16;446570;118;922583;-74
2022/07/17 00:50:35;;;;;;;21.02;19.64;;;;;;;21.10;82.21;100782.27;430162;123;923244;-75
2022/07/17 00:51:38;;;;;;;20.39;18.74;;;;;;;21.14;82.53;100780.59;450412;116;922875;-73
2022/07/17 00:52:42;;;;;;;20.25;18.87;;;;;;;21.20;82.73;100783.11;457939;116;922872;-74
2022/07/17 00:53:46;;;;;;;20.64;19.35;;;;;;;21.26;82.86;100783.09;458013;116;922867;-74
2022/07/17 00:54:52;;;;;;;20.86;19.41;;;;;;;21.29;82.76;100775.03;457849;116;922882;-74
2022/07/17 00:55:58;;;;;;;20.15;18.71;;;;;;;21.35;82.80;100775.85;453535;116;930580;-75
2022/07/17 00:57:04;;;;;;;20.84;19.54;;;;;;;21.39;82.86;100776.97;457919;116;923140;-75
2022/07/17 00:58:09;;;;;;;20.01;18.69;;;;;;;21.42;82.76;100776.40;457806;116;922866;-74
2022/07/17 00:59:14;;;;;;;20.00;18.64;;;;;;;21.44;82.83;100774.19;457809;116;923075;-75
2022/07/17 01:00:18;;;;;;;19.02;17.67;;;;;;;21.43;82.21;100756.70;457768;116;922599;-74
2022/07/17 01:01:22;;;;;;;19.04;17.67;;;;;;;21.40;81.66;100771.12;457838;116;922777;-74
2022/07/17 01:02:25;;;;;;;19.62;18.32;;;;;;;21.38;81.63;100772.53;457925;116;930478;-74
2022/07/17 01:03:28;;;;;;;19.77;18.48;;;;;;;21.37;81.38;100773.64;457951;116;922864;-75
2022/07/17 01:04:32;;;;;;;19.61;18.29;;;;;;;21.34;80.92;100776.95;457976;116;922506;-74
2022/07/17 01:05:36;;;;;;;19.55;18.16;;;;;;;21.32;80.70;100781.98;457827;116;922592;-75
2022/07/17 01:06:39;;;;;;;19.56;18.26;;;;;;;21.26;80.55;100775.61;459424;114;922680;-75
2022/07/17 01:07:42;;;;;;;19.89;18.47;;;;;;;21.25;80.48;100781.43;466072;114;922525;-75
2022/07/17 01:08:46;;;;;;;21.07;19.27;;;;;;;21.23;80.34;100783.67;466011;114;923064;-75
2022/07/17 01:09:49;;;;;;;19.18;17.74;;;;;;;21.17;79.91;100780.88;465999;114;922704;-75
2022/07/17 01:10:52;;;;;;;19.07;17.83;;;;;;;21.11;79.79;100787.54;465935;114;930466;-75
2022/07/17 01:11:56;;;;;;;18.40;17.10;;;;;;;21.06;79.74;100790.29;457763;116;930603;-75
2022/07/17 01:12:59;;;;;;;18.73;17.37;;;;;;;21.00;79.60;100782.28;458115;114;922621;-75
2022/07/17 01:14:02;;;;;;;19.62;18.32;;;;;;;;;;466040;114;930461;-75
2022/07/17 01:15:06;;;;;;;18.66;17.32;;;;;;;20.93;79.96;100788.11;459936;114;923076;-75
2022/07/17 01:16:09;;;;;;;18.36;17.17;;;;;;;20.92;80.08;100786.44;458751;114;923051;-76
2022/07/17 01:17:12;;;;;;;18.97;17.33;;;;;;;20.92;80.38;100783.67;462115;114;930503;-75
2022/07/17 01:18:16;;;;;;;18.23;16.91;;;;;;;20.95;80.56;100782.30;462089;114;922602;-75
2022/07/17 01:19:20;;;;;;;19.59;18.07;;;;;;;20.99;80.83;100789.77;462026;114;922836;-75
2022/07/17 01:20:23;;;;;;;18.35;16.97;;;;;;;21.03;80.89;100796.41;461935;114;922609;-75
2022/07/17 01:21:41;;;;;;;18.71;17.46;;;;;;;21.05;80.70;100793.37;462005;114;930517;-75
2022/07/17 01:22:46;;;;;;;18.39;16.97;;;;;;;21.05;80.51;100791.42;461834;114;922539;-75
2022/07/17 01:23:49;;;;;;;19.07;17.68;;;;;;;21.06;80.47;100795.84;461882;114;922616;-75
2022/07/17 01:24:52;;;;;;;18.49;17.17;;;;;;;21.06;80.47;100793.06;462068;114;922707;-74
2022/07/17 01:25:55;;;;;;;17.50;16.31;;;;;;;21.07;80.56;100794.73;462087;114;922602;-75
2022/07/17 01:26:58;;;;;;;18.06;16.86;;;;;;;21.11;80.79;100798.63;462083;114;922630;-75
2022/07/17 01:28:02;;;;;;;18.86;17.45;;;;;;;21.14;81.00;100792.55;462033;114;923443;-75
2022/07/17 01:29:05;;;;;;;17.60;16.32;;;;;;;21.18;80.84;100790.03;461958;114;922914;-75
2022/07/17 01:30:10;;;;;;;17.65;16.55;;;;;;;21.19;80.57;100800.85;461888;114;930491;-74
2022/07/17 01:31:13;;;;;;;18.48;17.10;;;;;;;21.20;80.37;100796.14;462001;114;922974;-75
2022/07/17 01:32:16;;;;;;;17.29;16.12;;;;;;;21.20;80.26;100793.37;462070;114;922583;-75
2022/07/17 01:33:20;;;;;;;17.66;16.50;;;;;;;21.19;80.06;100798.08;462107;114;922580;-74
2022/07/17 01:34:23;;;;;;;18.72;17.16;;;;;;;21.19;80.36;100792.53;461880;112;922983;-74
2022/07/17 01:35:27;;;;;;;16.44;15.30;;;;;;;21.21;80.46;100795.88;462067;114;922582;-75
2022/07/17 01:36:32;;;;;;;17.63;16.46;;;;;;;21.23;80.34;100799.17;461935;114;922553;-75
2022/07/17 01:37:36;;;;;;;18.12;16.56;;;;;;;21.25;80.32;100793.36;462121;114;922612;-75
2022/07/17 01:38:38;;;;;;;17.14;16.06;;;;;;;21.24;79.93;100797.23;461948;114;922864;-75
2022/07/17 01:39:54;;;;;;;16.54;15.28;;;;;;;21.24;79.94;100802.78;462120;114;922608;-75
2022/07/17 01:40:57;;;;;;;15.94;14.87;;;;;;;21.23;79.85;100801.95;461924;114;922610;-75
2022/07/17 01:42:00;;;;;;;16.44;15.33;;;;;;;21.20;79.54;100796.98;461983;114;923102;-75
2022/07/17 01:43:03;;;;;;;16.48;15.43;;;;;;;21.19;79.63;100798.08;462014;114;922498;-75
2022/07/17 01:44:08;;;;;;;17.26;16.04;;;;;;;21.19;79.55;100800.85;462057;114;922528;-75
2022/07/17 01:45:12;;;;;;;17.47;16.10;;;;;;;21.18;79.55;100806.67;461957;114;922857;-75
2022/07/17 01:46:17;;;;;;;16.44;15.28;;;;;;;21.19;79.57;100798.08;461688;114;930597;-75
2022/07/17 01:47:21;;;;;;;17.27;16.14;;;;;;;21.20;79.48;100798.91;462055;114;923239;-75
2022/07/17 01:48:27;;;;;;;17.66;16.16;;;;;;;21.20;79.32;100793.37;461920;114;922537;-76
2022/07/17 01:49:30;;;;;;;16.94;15.84;;;;;;;21.19;79.33;100789.77;461733;114;930511;-75
2022/07/17 01:50:33;;;;;;;16.39;15.08;;;;;;;21.18;79.15;100796.41;462078;114;922547;-74
2022/07/17 01:51:36;;;;;;;18.46;17.01;;;;;;;21.15;78.73;100796.98;462125;114;922537;-74
2022/07/17 01:52:42;;;;;;;17.02;15.75;;;;;;;21.10;78.50;100799.73;461901;114;922593;-74
2022/07/17 01:53:45;;;;;;;17.36;16.15;;;;;;;21.04;78.37;100809.16;461881;114;930491;-74
2022/07/17 01:54:49;;;;;;;16.51;15.31;;;;;;;20.97;78.08;100797.52;462018;114;930544;-74
2022/07/17 01:55:52;;;;;;;16.39;15.31;;;;;;;20.91;78.20;100801.41;462034;114;922723;-75
2022/07/17 01:56:55;;;;;;;16.15;14.96;;;;;;;20.86;78.46;100798.63;462126;114;922466;-75
2022/07/17 01:57:58;;;;;;;15.03;14.02;;;;;;;20.85;78.46;100798.91;462095;114;922530;-75
2022/07/17 01:59:01;;;;;;;16.12;14.89;;;;;;;20.80;78.47;100796.97;462121;114;922567;-76
2022/07/17 02:00:08;;;;;;;16.34;15.23;;;;;;;20.78;78.76;100797.23;462010;114;922683;-73
2022/07/17 02:01:11;;;;;;;15.01;14.08;;;;;;;20.79;78.90;100803.61;461917;114;922502;-74
2022/07/17 02:02:17;;;;;;;15.46;14.46;;;;;;;20.81;78.94;100806.95;462030;114;923462;-75
2022/07/17 02:03:21;;;;;;;16.51;15.23;;;;;;;20.81;78.97;100802.24;461878;114;922721;-74
2022/07/17 02:04:26;;;;;;;15.63;14.41;;;;;;;20.81;78.91;100795.87;461904;114;922607;-74
2022/07/17 02:05:29;;;;;;;15.44;14.18;;;;;;;20.81;78.92;100801.41;462068;114;922579;-74
2022/07/17 02:06:33;;;;;;;16.29;15.03;;;;;;;20.81;78.84;100801.41;461985;114;922682;-75
2022/07/17 02:07:39;;;;;;;13.95;13.05;;;;;;;20.79;78.71;100806.38;462108;114;922853;-75
2022/07/17 02:08:41;;;;;;;15.07;14.11;;;;;;;20.77;78.69;100806.69;461891;114;922540;-74
2022/07/17 02:09:44;;;;;;;14.61;13.61;;;;;;;20.78;78.77;100807.52;462110;114;922595;-74
2022/07/17 02:10:47;;;;;;;14.93;13.84;;;;;;;20.76;78.24;100804.19;462062;114;922539;-76
2022/07/17 02:11:50;;;;;;;15.19;14.22;;;;;;;20.71;77.97;100804.19;462064;114;922692;-75
2022/07/17 02:12:54;;;;;;;13.92;13.04;;;;;;;20.66;78.08;100801.41;462050;114;922805;-75
2022/07/17 02:13:57;;;;;;;14.59;13.59;;;;;;;20.63;78.05;100804.72;462133;114;922968;-73
2022/07/17 02:15:02;;;;;;;14.48;13.56;;;;;;;20.60;78.14;100808.05;466823;113;922550;-74
2022/07/17 02:16:06;;;;;;;14.67;13.71;;;;;;;20.57;78.05;100808.59;468859;113;922590;-75
2022/07/17 02:17:09;;;;;;;13.87;12.90;;;;;;;20.54;78.30;100807.22;468972;113;923373;-74
2022/07/17 02:18:12;;;;;;;14.32;13.28;;;;;;;20.55;78.55;100806.11;469047;113;922972;-75
2022/07/17 02:19:15;;;;;;;13.91;12.99;;;;;;;20.57;78.47;100809.42;469034;113;922470;-74
2022/07/17 02:20:20;;;;;;;13.95;12.95;;;;;;;20.57;78.43;100809.42;468856;112;922844;-75
2022/07/17 02:21:23;;;;;;;14.54;13.37;;;;;;;20.59;78.50;100814.70;468916;113;930397;-74
2022/07/17 02:22:25;;;;;;;12.76;11.99;;;;;;;20.60;78.49;100808.89;468942;113;922521;-74
2022/07/17 02:23:29;;;;;;;13.61;12.68;;;;;;;20.61;78.41;100810.55;468952;113;922646;-74
2022/07/17 02:24:32;;;;;;;13.76;12.86;;;;;;;20.63;78.48;100802.78;468982;113;922886;-74
2022/07/17 02:25:35;;;;;;;14.30;13.22;;;;;;;20.65;78.49;100803.34;464787;113;923325;-75
2022/07/17 02:26:38;;;;;;;12.44;11.64;;;;;;;20.70;78.53;100808.05;462125;114;922895;-75
2022/07/17 02:27:42;;;;;;;12.63;11.60;;;;;;;20.72;78.62;100814.16;462129;114;922506;-75
2022/07/17 02:28:45;;;;;;;12.64;11.79;;;;;;;20.75;78.48;100805.28;462051;114;922682;-75
2022/07/17 02:29:48;;;;;;;13.67;12.77;;;;;;;20.76;78.35;100805.02;461999;114;930516;-75
2022/07/17 02:30:51;;;;;;;13.69;12.64;;;;;;;20.77;78.29;100798.38;462127;114;922860;-74
2022/07/17 02:31:54;;;;;;;13.40;12.50;;;;;;;20.80;78.28;100799.73;462107;114;922580;-75
2022/07/17 02:32:57;;;;;;;13.51;12.54;;;;;;;20.82;78.37;100803.08;462090;114;922587;-74
2022/07/17 02:33:59;;;;;;;13.88;12.99;;;;;;;20.85;78.28;100809.98;462121;114;922646;-75
2022/07/17 02:35:03;;;;;;;13.61;12.35;;;;;;;20.87;78.19;100802.23;462092;114;922978;-75
2022/07/17 02:36:07;;;;;;;14.05;12.95;;;;;;;20.88;78.16;100804.74;461998;114;922575;-75
2022/07/17 02:37:10;;;;;;;14.35;13.09;;;;;;;20.92;78.25;100802.23;462026;114;922498;-75
2022/07/17 02:38:13;;;;;;;12.69;11.89;;;;;;;20.95;78.08;100807.24;462068;114;922589;-75
2022/07/17 02:39:16;;;;;;;13.76;12.82;;;;;;;20.99;77.90;100811.11;462094;114;922965;-75
2022/07/17 02:40:20;;;;;;;13.00;12.13;;;;;;;20.99;77.78;100803.63;462005;114;923066;-75
2022/07/17 02:41:23;;;;;;;12.61;11.71;;;;;;;21.01;77.75;100806.09;461993;114;930373;-76
2022/07/17 02:42:27;;;;;;;12.29;11.37;;;;;;;21.03;77.65;100810.27;462030;114;922637;-75
2022/07/17 02:43:31;;;;;;;13.48;12.48;;;;;;;21.05;77.42;100810.00;461867;114;922680;-76
2022/07/17 02:44:35;;;;;;;13.92;12.98;;;;;;;21.04;77.22;100814.71;461996;114;922601;-75
2022/07/17 02:45:38;;;;;;;13.72;12.74;;;;;;;21.04;77.10;100816.65;461996;114;922497;-76
2022/07/17 02:46:41;;;;;;;12.43;11.63;;;;;;;21.03;77.08;100817.75;462054;114;930375;-75
2022/07/17 02:47:44;;;;;;;13.62;12.69;;;;;;;21.04;77.18;100820.26;462031;114;922983;-75
2022/07/17 02:48:47;;;;;;;14.53;13.14;;;;;;;21.08;77.28;100821.35;462094;114;923019;-76
2022/07/17 02:49:51;;;;;;;13.06;12.11;;;;;;;21.09;76.96;100817.48;462103;114;922970;-75
2022/07/17 02:50:54;;;;;;;13.86;12.92;;;;;;;21.08;76.64;100814.98;462017;114;922924;-76
2022/07/17 02:51:57;;;;;;;12.40;11.51;;;;;;;21.06;76.56;100806.13;462123;114;922935;-76
2022/07/17 02:53:00;;;;;;;12.79;11.85;;;;;;;21.05;76.46;100805.30;462122;114;922559;-76
2022/07/17 02:54:03;;;;;;;12.51;11.50;;;;;;;21.05;76.33;100810.00;462119;114;922997;-73
2022/07/17 02:55:07;;;;;;;13.36;12.36;;;;;;;21.05;76.19;100813.61;462149;114;922580;-74
2022/07/17 02:56:12;;;;;;;12.71;11.88;;;;;;;21.04;76.20;100806.39;461785;114;922550;-74
2022/07/17 02:57:15;;;;;;;12.55;11.51;;;;;;;21.05;76.28;100810.84;462109;114;922734;-74
2022/07/17 02:58:18;;;;;;;13.35;12.43;;;;;;;21.07;76.37;100805.83;462079;114;922582;-74
2022/07/17 02:59:21;;;;;;;12.64;11.52;;;;;;;21.10;76.47;100794.19;462113;114;922878;-74
2022/07/17 03:00:29;;;;;;;13.14;12.34;;;;;;;21.13;76.64;100801.10;461924;114;922520;-75
2022/07/17 03:01:32;;;;;;;12.33;11.44;;;;;;;21.18;76.97;100795.58;461933;114;922554;-76
2022/07/17 03:02:36;;;;;;;13.68;12.35;;;;;;;21.24;77.22;100797.23;462030;114;922787;-75
2022/07/17 03:03:40;;;;;;;12.13;11.33;;;;;;;21.31;77.33;100797.78;462013;114;923269;-76
2022/07/17 03:04:43;;;;;;;12.28;11.26;;;;;;;21.36;77.35;100802.48;461970;114;922823;-75
2022/07/17 03:05:47;;;;;;;12.49;11.69;;;;;;;21.43;77.30;100803.03;462109;114;922989;-75
2022/07/17 03:06:50;;;;;;;12.31;11.51;;;;;;;21.47;77.08;100806.89;462033;114;922581;-75
2022/07/17 03:07:54;;;;;;;11.89;11.03;;;;;;;21.52;77.09;100801.33;462012;114;922799;-75
2022/07/17 03:08:57;;;;;;;11.45;10.63;;;;;;;21.54;76.80;100805.50;462162;114;922509;-75
2022/07/17 03:10:00;;;;;;;11.36;10.47;;;;;;;21.57;76.45;100801.31;462122;114;922500;-75
2022/07/17 03:11:03;;;;;;;11.85;10.96;;;;;;;21.58;76.26;100801.04;462113;114;922886;-75
2022/07/17 03:12:06;;;;;;;12.15;11.35;;;;;;;21.60;76.09;100796.05;462123;114;922972;-75
2022/07/17 03:13:09;;;;;;;12.11;10.96;;;;;;;21.61;76.09;100792.14;461953;114;922687;-75
2022/07/17 03:14:13;;;;;;;10.76;9.93;;;;;;;21.62;76.08;100796.58;462097;114;922843;-75
2022/07/17 03:15:17;;;;;;;10.21;9.48;;;;;;;21.64;76.02;100790.75;470475;112;922537;-75
2022/07/17 03:16:22;;;;;;;10.36;9.66;;;;;;;21.67;76.08;100792.15;470547;112;922883;-75
2022/07/17 03:17:25;;;;;;;10.25;9.61;;;;;;;21.69;76.04;100803.77;471384;112;922605;-75
2022/07/17 03:18:28;;;;;;;9.72;8.94;;;;;;;21.70;75.99;100797.95;472008;112;925369;-75
2022/07/17 03:19:32;;;;;;;9.71;8.96;;;;;;;21.72;75.73;100800.45;472045;112;922537;-75
2022/07/17 03:20:35;;;;;;;9.79;9.13;;;;;;;21.72;75.30;100795.73;472083;112;922516;-75
2022/07/17 03:21:38;;;;;;;10.50;9.78;;;;;;;21.71;75.14;100802.39;468673;112;922480;-75
2022/07/17 03:22:41;;;;;;;10.32;9.71;;;;;;;21.69;75.13;100801.83;463673;114;923436;-75
2022/07/17 03:23:44;;;;;;;9.82;9.12;;;;;;;21.71;75.13;100805.17;463663;114;922415;-76
2022/07/17 03:24:47;;;;;;;10.09;9.41;;;;;;;21.70;74.90;100797.95;463663;114;922929;-75
2022/07/17 03:25:50;;;;;;;10.01;9.36;;;;;;;21.70;74.86;100797.12;463650;114;922537;-76
2022/07/17 03:26:53;;;;;;;10.28;9.58;;;;;;;21.71;74.83;100794.06;463606;114;922633;-76
2022/07/17 03:27:56;;;;;;;10.53;9.67;;;;;;;21.73;74.90;100788.21;463594;114;922493;-76
2022/07/17 03:28:59;;;;;;;9.44;8.83;;;;;;;21.76;74.92;100790.44;463638;114;922845;-76
2022/07/17 03:30:03;;;;;;;9.99;9.31;;;;;;;21.77;74.85;100797.66;464029;113;922755;-76
2022/07/17 03:31:06;;;;;;;10.57;9.79;;;;;;;21.80;74.82;100794.30;463548;114;922922;-75
2022/07/17 03:32:09;;;;;;;11.45;9.91;;;;;;;21.83;74.76;100793.75;463579;114;930700;-76
2022/07/17 03:33:12;;;;;;;10.06;9.24;;;;;;;21.84;74.60;100790.66;463589;114;922541;-76
2022/07/17 03:34:15;;;;;;;10.37;9.60;;;;;;;21.85;74.53;100795.11;463574;112;922503;-76
2022/07/17 03:35:18;;;;;;;10.58;9.48;;;;;;;21.84;74.36;100795.38;454921;116;922552;-75
2022/07/17 03:36:22;;;;;;;10.15;9.35;;;;;;;21.84;74.26;100793.44;455400;114;922997;-75
2022/07/17 03:37:25;;;;;;;9.19;8.59;;;;;;;21.84;74.14;100798.98;463635;114;922637;-75
2022/07/17 03:38:29;;;;;;;9.13;8.55;;;;;;;21.83;74.10;100791.77;463518;114;923088;-75
2022/07/17 03:39:31;;;;;;;9.08;8.52;;;;;;;21.83;74.13;100797.32;463584;114;922500;-75
2022/07/17 03:40:35;;;;;;;8.87;8.23;;;;;;;21.82;74.07;100790.14;463551;114;922989;-75
2022/07/17 03:41:38;;;;;;;9.15;8.54;;;;;;;21.82;73.91;100789.30;463583;114;930582;-75
2022/07/17 03:42:41;;;;;;;9.43;8.71;;;;;;;21.82;74.00;100789.30;463559;114;922536;-75
2022/07/17 03:43:44;;;;;;;9.79;8.86;;;;;;;21.82;73.89;100787.36;463609;114;923095;-75
2022/07/17 03:44:48;;;;;;;9.13;8.47;;;;;;;21.84;73.84;100790.66;463617;114;922579;-75
2022/07/17 03:45:51;;;;;;;9.18;8.54;;;;;;;21.84;73.79;100792.61;463493;114;922566;-75
2022/07/17 03:46:54;;;;;;;10.19;9.25;;;;;;;21.84;73.82;100790.66;463590;114;922539;-75
2022/07/17 03:47:58;;;;;;;8.75;8.18;;;;;;;21.86;73.73;100799.55;463559;114;922740;-75
2022/07/17 03:49:01;;;;;;;9.44;8.76;;;;;;;21.87;73.75;100794.83;463585;114;922983;-76
2022/07/17 03:50:05;;;;;;;9.62;9.04;;;;;;;21.87;73.69;100792.89;463531;114;923045;-75
2022/07/17 03:51:08;;;;;;;9.57;9.01;;;;;;;21.89;73.60;100792.58;463469;114;930720;-75
2022/07/17 03:52:11;;;;;;;9.21;8.53;;;;;;;21.90;73.58;100797.86;463597;114;922782;-75
2022/07/17 03:53:14;;;;;;;9.42;8.82;;;;;;;21.90;73.50;100786.75;463568;114;923003;-75
2022/07/17 03:54:16;;;;;;;9.20;8.57;;;;;;;21.91;73.50;100787.59;463629;114;922691;-75
2022/07/17 03:55:20;;;;;;;9.28;8.67;;;;;;;21.91;73.50;100785.64;463561;114;922528;-75
2022/07/17 03:56:23;;;;;;;9.72;8.97;;;;;;;21.91;73.29;100782.86;463543;114;930510;-75
2022/07/17 03:57:26;;;;;;;9.62;8.96;;;;;;;21.89;73.16;100779.53;463591;114;923016;-75
2022/07/17 03:58:29;;;;;;;9.46;8.78;;;;;;;21.89;73.08;100778.70;463574;114;922610;-75
2022/07/17 03:59:32;;;;;;;9.17;8.52;;;;;;;21.88;73.07;100783.45;463656;114;922616;-75
2022/07/17 04:00:35;;;;;;;9.74;9.05;;;;;;;21.87;73.05;100784.56;463634;114;922975;-75
2022/07/17 04:01:38;;;;;;;9.24;8.64;;;;;;;21.87;73.04;100784.56;463642;114;922911;-75
2022/07/17 04:02:42;;;;;;;9.11;8.51;;;;;;;21.88;72.96;100785.39;463616;114;922568;-75
2022/07/17 04:03:45;;;;;;;10.13;9.44;;;;;;;21.86;73.00;100791.22;463570;114;922859;-75
2022/07/17 04:04:48;;;;;;;10.75;9.96;;;;;;;21.86;72.94;100796.77;463613;114;922553;-75
2022/07/17 04:05:51;;;;;;;10.21;9.42;;;;;;;21.87;72.44;100798.44;463618;114;922875;-75
2022/07/17 04:06:54;;;;;;;9.65;9.00;;;;;;;21.85;72.31;100802.59;463551;114;922598;-75
2022/07/17 04:07:58;;;;;;;9.56;8.96;;;;;;;21.82;72.23;100801.23;463595;114;922595;-75
2022/07/17 04:09:01;;;;;;;9.88;9.07;;;;;;;21.81;72.15;100802.34;454860;116;922653;-75
2022/07/17 04:10:05;;;;;;;10.09;9.31;;;;;;;21.80;72.12;100797.91;455235;114;922684;-75
2022/07/17 04:11:08;;;;;;;10.86;10.02;;;;;;;21.81;72.21;100802.34;463537;114;923092;-75
2022/07/17 04:12:12;;;;;;;10.09;9.29;;;;;;;21.83;72.35;100802.08;463404;114;922727;-75
2022/07/17 04:13:15;;;;;;;10.10;9.41;;;;;;;21.86;72.36;100804.27;463577;114;922568;-75
2022/07/17 04:14:19;;;;;;;9.62;8.99;;;;;;;21.87;72.08;100803.99;463646;112;922526;-75
2022/07/17 04:16:43;;;;;;;10.24;9.47;;;;;;;21.86;72.04;100796.77;471675;112;922578;-75
2022/07/17 04:17:46;;;;;;;10.48;9.68;;;;;;;21.86;72.18;100807.88;465987;112;923176;-75
2022/07/17 04:18:49;;;;;;;10.17;9.23;;;;;;;21.87;72.32;100798.44;446627;118;922570;-75
2022/07/17 04:19:52;;;;;;;9.98;9.31;;;;;;;21.89;72.39;100798.13;446597;118;922783;-75
2022/07/17 04:20:58;;;;;;;9.93;9.30;;;;;;;21.91;72.55;100795.91;446679;118;922876;-75
2022/07/17 04:22:01;;;;;;;9.01;8.43;;;;;;;21.94;72.55;100793.42;446435;118;922564;-75
2022/07/17 04:23:05;;;;;;;10.59;9.85;;;;;;;21.96;72.51;100796.75;446588;118;922822;-75
2022/07/17 04:24:08;;;;;;;9.59;8.83;;;;;;;21.98;72.48;100802.86;446580;118;922590;-75
2022/07/17 04:25:11;;;;;;;9.61;8.96;;;;;;;22.01;72.42;100798.67;446686;118;922578;-75
2022/07/17 04:26:14;;;;;;;9.86;9.19;;;;;;;22.02;72.46;100801.17;446708;118;922585;-75
2022/07/17 04:27:17;;;;;;;11.04;10.14;;;;;;;22.06;72.74;100804.19;446613;118;923313;-75
2022/07/17 04:28:21;;;;;;;9.77;8.99;;;;;;;22.11;72.90;100798.61;446647;118;922508;-75
2022/07/17 04:29:24;;;;;;;10.37;9.53;;;;;;;22.18;72.98;100801.08;446414;118;922511;-75
2022/07/17 04:30:27;;;;;;;9.29;8.68;;;;;;;22.25;72.82;100791.33;445084;118;930505;-75
2022/07/17 04:31:30;;;;;;;8.69;8.16;;;;;;;22.31;72.73;100792.95;446695;118;922461;-75
2022/07/17 04:32:34;;;;;;;9.69;8.98;;;;;;;22.36;72.74;100794.87;446564;118;922605;-75
2022/07/17 04:33:37;;;;;;;11.59;8.89;;;;;;;22.41;72.77;100789.27;446119;118;922627;-75
2022/07/17 04:34:40;;;;;;;9.83;9.13;;;;;;;22.48;72.67;100797.30;445759;119;922520;-75
2022/07/17 04:35:43;;;;;;;9.59;8.98;;;;;;;22.52;72.53;100798.36;445767;119;922615;-75
2022/07/17 04:36:46;;;;;;;9.39;8.69;;;;;;;22.58;72.49;100792.48;445678;119;922947;-75
2022/07/17 04:37:49;;;;;;;9.13;8.54;;;;;;;22.62;72.34;100788.00;445736;119;922967;-75
2022/07/17 04:38:52;;;;;;;9.54;8.81;;;;;;;22.69;72.27;100793.23;445766;119;922866;-75
2022/07/17 04:39:55;;;;;;;10.12;9.34;;;;;;;22.73;72.11;100800.73;445705;119;922832;-75
2022/07/17 04:40:59;;;;;;;9.23;8.53;;;;;;;22.77;71.91;100796.25;445708;119;923054;-75
2022/07/17 04:42:02;;;;;;;9.71;9.06;;;;;;;22.79;71.59;100796.80;445722;119;922587;-75
2022/07/17 04:43:05;;;;;;;9.48;8.86;;;;;;;22.82;71.28;100798.18;445705;119;922606;-75
2022/07/17 04:44:08;;;;;;;9.88;9.14;;;;;;;22.82;71.13;100795.40;445625;119;922676;-75
2022/07/17 04:45:13;;;;;;;9.36;8.62;;;;;;;22.83;71.16;100795.08;445683;119;930497;-75
2022/07/17 04:46:17;;;;;;;8.98;8.35;;;;;;;22.85;71.11;100798.41;445557;119;922578;-75
2022/07/17 04:47:20;;;;;;;8.28;7.77;;;;;;;22.91;71.13;100803.93;445771;119;922596;-75
2022/07/17 04:48:23;;;;;;;8.50;7.90;;;;;;;22.94;71.04;100806.11;445730;119;922683;-75
2022/07/17 04:49:26;;;;;;;9.02;8.35;;;;;;;22.98;70.86;100799.70;445749;119;922739;-75